sensor_id;sensor_type;location;lat;lon;timestamp;pressure;altitude;pressure_sealevel;temperature;humidity
79142;BME280;68550;-26.480;29.234;2024-01-07T00:02:12;84286.38;;;26.69;37.68
79142;BME280;68550;-26.480;29.234;2024-01-07T00:04:38;84287.30;;;26.44;37.18
79142;BME280;68550;-26.480;29.234;2024-01-07T00:07:04;84287.69;;;26.36;37.21
79142;BME280;68550;-26.480;29.234;2024-01-07T00:09:30;84285.07;;;26.34;37.13
79142;BME280;68550;-26.480;29.234;2024-01-07T00:11:54;84284.50;;;26.42;37.07
79142;BME280;68550;-26.480;29.234;2024-01-07T00:14:19;84286.27;;;26.57;37.09
79142;BME280;68550;-26.480;29.234;2024-01-07T00:16:45;84287.16;;;26.41;37.05
79142;BME280;68550;-26.480;29.234;2024-01-07T00:19:10;84293.51;;;26.42;36.97
79142;BME280;68550;-26.480;29.234;2024-01-07T00:21:35;84292.24;;;26.73;36.84
79142;BME280;68550;-26.480;29.234;2024-01-07T00:24:01;84293.54;;;26.45;36.88
79142;BME280;68550;-26.480;29.234;2024-01-07T00:26:26;84293.68;;;26.67;36.86
79142;BME280;68550;-26.480;29.234;2024-01-07T00:28:52;84292.40;;;26.72;36.77
79142;BME280;68550;-26.480;29.234;2024-01-07T00:31:17;84290.54;;;26.43;36.81
79142;BME280;68550;-26.480;29.234;2024-01-07T00:33:42;84286.96;;;26.53;36.68
79142;BME280;68550;-26.480;29.234;2024-01-07T00:36:08;84288.86;;;26.79;36.67
79142;BME280;68550;-26.480;29.234;2024-01-07T00:38:35;84287.03;;;26.75;36.74
79142;BME280;68550;-26.480;29.234;2024-01-07T00:40:59;84282.87;;;26.80;36.67
79142;BME280;68550;-26.480;29.234;2024-01-07T00:43:26;84286.59;;;26.80;36.86
79142;BME280;68550;-26.480;29.234;2024-01-07T00:45:49;84284.17;;;26.82;36.96
79142;BME280;68550;-26.480;29.234;2024-01-07T00:48:15;84283.17;;;26.75;37.14
79142;BME280;68550;-26.480;29.234;2024-01-07T00:50:41;84282.11;;;26.72;37.07
79142;BME280;68550;-26.480;29.234;2024-01-07T00:53:05;84283.89;;;26.55;37.21
79142;BME280;68550;-26.480;29.234;2024-01-07T00:55:31;84282.23;;;26.42;37.39
79142;BME280;68550;-26.480;29.234;2024-01-07T00:57:56;84283.28;;;26.42;37.44
79142;BME280;68550;-26.480;29.234;2024-01-07T01:00:22;84284.92;;;26.43;37.39
79142;BME280;68550;-26.480;29.234;2024-01-07T01:02:48;84283.89;;;26.58;37.56
79142;BME280;68550;-26.480;29.234;2024-01-07T01:05:12;84280.93;;;26.64;37.28
79142;BME280;68550;-26.480;29.234;2024-01-07T01:07:38;84281.80;;;26.65;37.39
79142;BME280;68550;-26.480;29.234;2024-01-07T01:10:03;84282.22;;;26.61;37.33
79142;BME280;68550;-26.480;29.234;2024-01-07T01:12:36;84283.33;;;26.62;37.20
79142;BME280;68550;-26.480;29.234;2024-01-07T01:14:57;84281.27;;;26.68;37.20
79142;BME280;68550;-26.480;29.234;2024-01-07T01:17:19;84281.57;;;26.39;37.11
79142;BME280;68550;-26.480;29.234;2024-01-07T01:19:44;84281.76;;;26.68;37.09
79142;BME280;68550;-26.480;29.234;2024-01-07T01:22:10;84282.35;;;26.42;37.08
79142;BME280;68550;-26.480;29.234;2024-01-07T01:24:35;84284.81;;;26.68;36.94
79142;BME280;68550;-26.480;29.234;2024-01-07T01:27:01;84286.53;;;26.58;37.01
79142;BME280;68550;-26.480;29.234;2024-01-07T01:29:27;84288.28;;;26.38;36.97
79142;BME280;68550;-26.480;29.234;2024-01-07T01:31:51;84285.38;;;26.66;36.89
79142;BME280;68550;-26.480;29.234;2024-01-07T01:34:17;84284.71;;;26.36;36.87
79142;BME280;68550;-26.480;29.234;2024-01-07T01:36:42;84285.12;;;26.67;36.83
79142;BME280;68550;-26.480;29.234;2024-01-07T01:39:07;84286.03;;;26.43;36.86
79142;BME280;68550;-26.480;29.234;2024-01-07T01:41:33;84285.53;;;26.36;36.96
79142;BME280;68550;-26.480;29.234;2024-01-07T01:43:59;84286.49;;;26.63;37.00
79142;BME280;68550;-26.480;29.234;2024-01-07T01:46:24;84285.38;;;26.42;37.11
79142;BME280;68550;-26.480;29.234;2024-01-07T01:48:49;84288.81;;;26.63;37.14
79142;BME280;68550;-26.480;29.234;2024-01-07T01:51:15;84289.07;;;26.34;37.05
79142;BME280;68550;-26.480;29.234;2024-01-07T01:53:42;84288.64;;;26.54;37.14
79142;BME280;68550;-26.480;29.234;2024-01-07T01:56:06;84291.47;;;26.34;37.08
79142;BME280;68550;-26.480;29.234;2024-01-07T01:58:30;84293.29;;;26.30;37.09
79142;BME280;68550;-26.480;29.234;2024-01-07T02:00:56;84297.88;;;26.51;37.07
79142;BME280;68550;-26.480;29.234;2024-01-07T02:03:21;84294.30;;;26.46;37.24
79142;BME280;68550;-26.480;29.234;2024-01-07T02:05:50;84298.07;;;26.43;37.25
79142;BME280;68550;-26.480;29.234;2024-01-07T02:08:14;84303.06;;;26.48;37.26
79142;BME280;68550;-26.480;29.234;2024-01-07T02:10:37;84307.43;;;26.49;37.18
79142;BME280;68550;-26.480;29.234;2024-01-07T02:13:03;84311.87;;;26.42;37.17
79142;BME280;68550;-26.480;29.234;2024-01-07T02:15:28;84320.27;;;26.15;37.27
79142;BME280;68550;-26.480;29.234;2024-01-07T02:17:56;84327.08;;;26.42;37.08
79142;BME280;68550;-26.480;29.234;2024-01-07T02:20:19;84334.49;;;26.21;36.87
79142;BME280;68550;-26.480;29.234;2024-01-07T02:22:44;84337.63;;;26.23;36.98
79142;BME280;68550;-26.480;29.234;2024-01-07T02:25:09;84323.57;;;26.20;37.01
79142;BME280;68550;-26.480;29.234;2024-01-07T02:27:35;84327.97;;;26.35;37.14
79142;BME280;68550;-26.480;29.234;2024-01-07T02:30:00;84326.64;;;26.47;36.89
79142;BME280;68550;-26.480;29.234;2024-01-07T02:32:25;84326.17;;;26.49;36.82
79142;BME280;68550;-26.480;29.234;2024-01-07T02:34:51;84329.82;;;26.13;37.12
79142;BME280;68550;-26.480;29.234;2024-01-07T02:37:16;84339.61;;;26.43;37.05
79142;BME280;68550;-26.480;29.234;2024-01-07T02:39:44;84335.82;;;26.23;36.87
79142;BME280;68550;-26.480;29.234;2024-01-07T02:42:07;84336.93;;;26.45;37.11
79142;BME280;68550;-26.480;29.234;2024-01-07T02:44:32;84337.97;;;26.67;37.08
79142;BME280;68550;-26.480;29.234;2024-01-07T02:46:58;84336.06;;;26.46;37.07
79142;BME280;68550;-26.480;29.234;2024-01-07T02:49:23;84337.20;;;26.38;37.02
79142;BME280;68550;-26.480;29.234;2024-01-07T02:51:48;84342.03;;;26.11;37.05
79142;BME280;68550;-26.480;29.234;2024-01-07T02:54:16;84336.50;;;26.52;37.17
79142;BME280;68550;-26.480;29.234;2024-01-07T02:56:39;84329.46;;;26.35;37.03
79142;BME280;68550;-26.480;29.234;2024-01-07T02:59:04;84329.89;;;26.59;36.93
79142;BME280;68550;-26.480;29.234;2024-01-07T03:01:30;84326.65;;;26.14;36.89
79142;BME280;68550;-26.480;29.234;2024-01-07T03:03:55;84330.20;;;26.52;37.01
79142;BME280;68550;-26.480;29.234;2024-01-07T03:06:21;84334.55;;;26.05;36.98
79142;BME280;68550;-26.480;29.234;2024-01-07T03:08:46;84336.54;;;26.12;36.85
79142;BME280;68550;-26.480;29.234;2024-01-07T03:11:11;84337.23;;;26.34;36.89
79142;BME280;68550;-26.480;29.234;2024-01-07T03:13:36;84338.39;;;26.28;36.92
79142;BME280;68550;-26.480;29.234;2024-01-07T03:16:03;84338.38;;;26.23;36.92
79142;BME280;68550;-26.480;29.234;2024-01-07T03:18:30;84342.36;;;26.07;36.82
79142;BME280;68550;-26.480;29.234;2024-01-07T03:20:53;84347.10;;;26.07;36.83
79142;BME280;68550;-26.480;29.234;2024-01-07T03:23:18;84347.17;;;26.25;36.97
79142;BME280;68550;-26.480;29.234;2024-01-07T03:25:43;84346.27;;;26.35;36.78
79142;BME280;68550;-26.480;29.234;2024-01-07T03:28:09;84350.20;;;26.37;36.74
79142;BME280;68550;-26.480;29.234;2024-01-07T03:30:36;84352.25;;;26.33;36.90
79142;BME280;68550;-26.480;29.234;2024-01-07T03:33:00;84352.81;;;26.33;36.82
79142;BME280;68550;-26.480;29.234;2024-01-07T03:35:27;84353.58;;;26.32;36.84
79142;BME280;68550;-26.480;29.234;2024-01-07T03:37:51;84356.48;;;26.32;36.85
79142;BME280;68550;-26.480;29.234;2024-01-07T03:40:16;84356.69;;;26.36;36.80
79142;BME280;68550;-26.480;29.234;2024-01-07T03:42:42;84358.00;;;26.38;36.76
79142;BME280;68550;-26.480;29.234;2024-01-07T03:45:07;84359.62;;;26.11;36.83
79142;BME280;68550;-26.480;29.234;2024-01-07T03:47:32;84360.52;;;26.47;36.98
79142;BME280;68550;-26.480;29.234;2024-01-07T03:50:00;84364.92;;;26.00;36.94
79142;BME280;68550;-26.480;29.234;2024-01-07T03:52:24;84365.20;;;26.55;36.80
79142;BME280;68550;-26.480;29.234;2024-01-07T03:54:50;84367.33;;;26.55;36.79
79142;BME280;68550;-26.480;29.234;2024-01-07T03:57:14;84367.66;;;26.26;36.86
79142;BME280;68550;-26.480;29.234;2024-01-07T03:59:42;84367.98;;;26.41;37.17
79142;BME280;68550;-26.480;29.234;2024-01-07T04:02:05;84367.82;;;26.27;36.80
79142;BME280;68550;-26.480;29.234;2024-01-07T04:04:30;84370.17;;;26.28;36.80
79142;BME280;68550;-26.480;29.234;2024-01-07T04:06:56;84370.13;;;26.21;36.96
79142;BME280;68550;-26.480;29.234;2024-01-07T04:09:21;84371.14;;;26.22;37.08
79142;BME280;68550;-26.480;29.234;2024-01-07T04:11:48;84374.84;;;26.22;37.01
79142;BME280;68550;-26.480;29.234;2024-01-07T04:14:14;84378.83;;;25.94;37.19
79142;BME280;68550;-26.480;29.234;2024-01-07T04:16:37;84381.17;;;25.96;36.91
79142;BME280;68550;-26.480;29.234;2024-01-07T04:19:02;84382.21;;;26.23;37.13
79142;BME280;68550;-26.480;29.234;2024-01-07T04:21:27;84384.89;;;26.23;37.12
79142;BME280;68550;-26.480;29.234;2024-01-07T04:23:54;84387.53;;;26.23;37.03
79142;BME280;68550;-26.480;29.234;2024-01-07T04:26:18;84390.94;;;26.25;36.98
79142;BME280;68550;-26.480;29.234;2024-01-07T04:28:44;84397.53;;;26.32;36.93
79142;BME280;68550;-26.480;29.234;2024-01-07T04:31:09;84397.86;;;26.35;36.88
79142;BME280;68550;-26.480;29.234;2024-01-07T04:33:34;84396.01;;;26.58;37.04
79142;BME280;68550;-26.480;29.234;2024-01-07T04:36:02;84395.52;;;26.32;37.02
79142;BME280;68550;-26.480;29.234;2024-01-07T04:38:25;84396.94;;;26.33;37.06
79142;BME280;68550;-26.480;29.234;2024-01-07T04:40:51;84396.47;;;26.66;36.90
79142;BME280;68550;-26.480;29.234;2024-01-07T04:43:20;84398.22;;;26.37;37.03
79142;BME280;68550;-26.480;29.234;2024-01-07T04:45:41;84399.43;;;26.00;37.58
79142;BME280;68550;-26.480;29.234;2024-01-07T04:48:07;84400.15;;;26.08;37.71
79142;BME280;68550;-26.480;29.234;2024-01-07T04:50:33;84402.11;;;26.55;37.69
79142;BME280;68550;-26.480;29.234;2024-01-07T04:52:58;84405.16;;;26.57;37.82
79142;BME280;68550;-26.480;29.234;2024-01-07T04:55:23;84405.62;;;26.34;37.69
79142;BME280;68550;-26.480;29.234;2024-01-07T04:57:48;84403.80;;;26.25;38.49
79142;BME280;68550;-26.480;29.234;2024-01-07T05:00:16;84401.80;;;26.48;38.04
79142;BME280;68550;-26.480;29.234;2024-01-07T05:02:40;84401.65;;;26.25;38.03
79142;BME280;68550;-26.480;29.234;2024-01-07T05:05:05;84404.37;;;26.00;37.97
79142;BME280;68550;-26.480;29.234;2024-01-07T05:07:30;84404.78;;;26.47;37.93
79142;BME280;68550;-26.480;29.234;2024-01-07T05:09:55;84404.93;;;25.99;38.06
79142;BME280;68550;-26.480;29.234;2024-01-07T05:12:20;84404.43;;;26.52;38.01
79142;BME280;68550;-26.480;29.234;2024-01-07T05:14:49;84403.72;;;26.49;38.09
79142;BME280;68550;-26.480;29.234;2024-01-07T05:17:11;84401.63;;;26.24;37.78
79142;BME280;68550;-26.480;29.234;2024-01-07T05:19:36;84404.79;;;26.67;37.67
79142;BME280;68550;-26.480;29.234;2024-01-07T05:22:02;84406.00;;;26.20;37.53
79142;BME280;68550;-26.480;29.234;2024-01-07T05:24:27;84410.17;;;26.15;37.63
79142;BME280;68550;-26.480;29.234;2024-01-07T05:26:54;84406.99;;;26.14;37.71
79142;BME280;68550;-26.480;29.234;2024-01-07T05:29:17;84403.87;;;26.64;38.02
79142;BME280;68550;-26.480;29.234;2024-01-07T05:31:43;84401.96;;;26.20;38.13
79142;BME280;68550;-26.480;29.234;2024-01-07T05:34:10;84402.32;;;26.43;38.10
79142;BME280;68550;-26.480;29.234;2024-01-07T05:36:34;84403.11;;;26.77;38.06
79142;BME280;68550;-26.480;29.234;2024-01-07T05:39:00;84404.10;;;26.26;38.07
79142;BME280;68550;-26.480;29.234;2024-01-07T05:41:24;84406.68;;;26.54;38.04
79142;BME280;68550;-26.480;29.234;2024-01-07T05:43:50;84406.48;;;26.30;37.92
79142;BME280;68550;-26.480;29.234;2024-01-07T05:46:15;84407.93;;;26.53;37.84
79142;BME280;68550;-26.480;29.234;2024-01-07T05:48:44;84406.08;;;26.54;37.43
79142;BME280;68550;-26.480;29.234;2024-01-07T05:51:07;84408.27;;;26.30;37.32
79142;BME280;68550;-26.480;29.234;2024-01-07T05:53:30;84409.76;;;26.77;37.64
79142;BME280;68550;-26.480;29.234;2024-01-07T05:55:56;84413.30;;;26.88;37.29
79142;BME280;68550;-26.480;29.234;2024-01-07T05:58:23;84410.05;;;26.55;36.96
79142;BME280;68550;-26.480;29.234;2024-01-07T06:00:46;84410.41;;;26.74;37.06
79142;BME280;68550;-26.480;29.234;2024-01-07T06:03:14;84411.32;;;26.88;36.94
79142;BME280;68550;-26.480;29.234;2024-01-07T06:05:39;84410.47;;;26.80;36.97
79142;BME280;68550;-26.480;29.234;2024-01-07T06:08:03;84412.69;;;26.69;37.13
79142;BME280;68550;-26.480;29.234;2024-01-07T06:10:28;84410.53;;;26.71;37.11
79142;BME280;68550;-26.480;29.234;2024-01-07T06:12:54;84410.95;;;26.76;37.08
79142;BME280;68550;-26.480;29.234;2024-01-07T06:15:19;84411.59;;;26.74;37.15
79142;BME280;68550;-26.480;29.234;2024-01-07T06:17:44;84417.97;;;26.82;37.16
79142;BME280;68550;-26.480;29.234;2024-01-07T06:20:10;84417.85;;;26.61;37.54
79142;BME280;68550;-26.480;29.234;2024-01-07T06:22:35;84422.09;;;26.64;37.73
79142;BME280;68550;-26.480;29.234;2024-01-07T06:25:00;84422.88;;;26.41;37.68
79142;BME280;68550;-26.480;29.234;2024-01-07T06:27:25;84426.02;;;26.68;37.69
79142;BME280;68550;-26.480;29.234;2024-01-07T06:29:51;84426.20;;;26.47;37.76
79142;BME280;68550;-26.480;29.234;2024-01-07T06:32:16;84423.85;;;26.48;37.92
79142;BME280;68550;-26.480;29.234;2024-01-07T06:34:41;84425.63;;;27.04;37.73
79142;BME280;68550;-26.480;29.234;2024-01-07T06:37:09;84423.98;;;26.55;37.77
79142;BME280;68550;-26.480;29.234;2024-01-07T06:39:32;84422.53;;;26.88;37.79
79142;BME280;68550;-26.480;29.234;2024-01-07T06:41:57;84421.39;;;26.73;37.44
79142;BME280;68550;-26.480;29.234;2024-01-07T06:44:23;84423.97;;;26.96;37.71
79142;BME280;68550;-26.480;29.234;2024-01-07T06:46:48;84422.20;;;26.85;37.25
79142;BME280;68550;-26.480;29.234;2024-01-07T06:49:13;84419.90;;;27.08;37.19
79142;BME280;68550;-26.480;29.234;2024-01-07T06:51:41;84416.52;;;27.44;36.98
79142;BME280;68550;-26.480;29.234;2024-01-07T06:54:04;84421.90;;;27.36;36.82
79142;BME280;68550;-26.480;29.234;2024-01-07T06:56:31;84418.36;;;27.10;36.88
79142;BME280;68550;-26.480;29.234;2024-01-07T06:58:55;84416.70;;;27.38;36.86
79142;BME280;68550;-26.480;29.234;2024-01-07T07:01:22;84418.71;;;27.15;36.84
79142;BME280;68550;-26.480;29.234;2024-01-07T07:03:45;84415.32;;;27.14;36.90
79142;BME280;68550;-26.480;29.234;2024-01-07T07:06:16;84412.27;;;27.15;36.92
79142;BME280;68550;-26.480;29.234;2024-01-07T07:08:36;84414.79;;;27.35;37.02
79142;BME280;68550;-26.480;29.234;2024-01-07T07:11:01;84409.52;;;27.08;37.09
79142;BME280;68550;-26.480;29.234;2024-01-07T07:13:26;84404.84;;;27.06;37.19
79142;BME280;68550;-26.480;29.234;2024-01-07T07:15:58;84404.02;;;27.11;37.15
79142;BME280;68550;-26.480;29.234;2024-01-07T07:18:17;84405.14;;;26.71;37.68
79142;BME280;68550;-26.480;29.234;2024-01-07T07:20:44;84402.38;;;26.75;37.69
79142;BME280;68550;-26.480;29.234;2024-01-07T07:23:08;84402.48;;;26.88;37.85
79142;BME280;68550;-26.480;29.234;2024-01-07T07:25:33;84398.34;;;26.71;37.81
79142;BME280;68550;-26.480;29.234;2024-01-07T07:27:59;84396.51;;;26.81;37.69
79142;BME280;68550;-26.480;29.234;2024-01-07T07:30:24;84392.67;;;26.85;37.68
79142;BME280;68550;-26.480;29.234;2024-01-07T07:32:52;84395.06;;;26.82;37.75
79142;BME280;68550;-26.480;29.234;2024-01-07T07:35:15;84391.58;;;26.97;37.92
79142;BME280;68550;-26.480;29.234;2024-01-07T07:37:40;84387.47;;;26.84;37.84
79142;BME280;68550;-26.480;29.234;2024-01-07T07:40:07;84383.04;;;26.87;37.83
79142;BME280;68550;-26.480;29.234;2024-01-07T07:42:31;84379.79;;;26.90;37.80
79142;BME280;68550;-26.480;29.234;2024-01-07T07:44:57;84377.45;;;26.88;37.82
79142;BME280;68550;-26.480;29.234;2024-01-07T07:47:22;84379.50;;;27.47;37.36
79142;BME280;68550;-26.480;29.234;2024-01-07T07:49:47;84380.81;;;27.30;37.27
79142;BME280;68550;-26.480;29.234;2024-01-07T07:52:12;84380.40;;;27.29;37.38
79142;BME280;68550;-26.480;29.234;2024-01-07T07:54:38;84381.04;;;27.57;37.33
79142;BME280;68550;-26.480;29.234;2024-01-07T07:57:05;84379.95;;;27.30;37.39
79142;BME280;68550;-26.480;29.234;2024-01-07T07:59:28;84376.75;;;27.51;37.59
79142;BME280;68550;-26.480;29.234;2024-01-07T08:01:53;84374.98;;;27.56;37.40
79142;BME280;68550;-26.480;29.234;2024-01-07T08:04:19;84375.88;;;27.31;37.45
79142;BME280;68550;-26.480;29.234;2024-01-07T08:06:46;84377.43;;;27.32;37.48
79142;BME280;68550;-26.480;29.234;2024-01-07T08:09:11;84378.43;;;27.35;37.45
79142;BME280;68550;-26.480;29.234;2024-01-07T08:11:35;84373.56;;;27.32;37.51
79142;BME280;68550;-26.480;29.234;2024-01-07T08:14:00;84369.72;;;27.25;37.59
79142;BME280;68550;-26.480;29.234;2024-01-07T08:16:26;84368.99;;;26.79;37.87
79142;BME280;68550;-26.480;29.234;2024-01-07T08:18:51;84367.24;;;26.73;37.97
79142;BME280;68550;-26.480;29.234;2024-01-07T08:21:17;84365.51;;;27.15;38.06
79142;BME280;68550;-26.480;29.234;2024-01-07T08:23:44;84364.20;;;27.03;37.90
79142;BME280;68550;-26.480;29.234;2024-01-07T08:26:07;84361.47;;;26.97;37.98
79142;BME280;68550;-26.480;29.234;2024-01-07T08:28:33;84357.78;;;26.92;38.06
79142;BME280;68550;-26.480;29.234;2024-01-07T08:30:58;84355.56;;;27.16;38.08
79142;BME280;68550;-26.480;29.234;2024-01-07T08:33:23;84356.65;;;27.33;37.70
79142;BME280;68550;-26.480;29.234;2024-01-07T08:35:51;84353.99;;;27.18;37.85
79142;BME280;68550;-26.480;29.234;2024-01-07T08:38:14;84350.02;;;26.97;38.09
79142;BME280;68550;-26.480;29.234;2024-01-07T08:40:40;84348.13;;;27.15;37.92
79142;BME280;68550;-26.480;29.234;2024-01-07T08:43:05;84343.65;;;27.21;37.80
79142;BME280;68550;-26.480;29.234;2024-01-07T08:45:30;84342.42;;;27.53;37.71
79142;BME280;68550;-26.480;29.234;2024-01-07T08:47:59;84338.68;;;27.55;37.53
79142;BME280;68550;-26.480;29.234;2024-01-07T08:50:21;84343.78;;;27.48;37.68
79142;BME280;68550;-26.480;29.234;2024-01-07T08:52:46;84341.69;;;27.39;37.80
79142;BME280;68550;-26.480;29.234;2024-01-07T08:55:11;84337.85;;;27.22;37.70
79142;BME280;68550;-26.480;29.234;2024-01-07T08:57:37;84340.28;;;27.16;37.69
79142;BME280;68550;-26.480;29.234;2024-01-07T09:00:03;84339.05;;;27.34;37.76
79142;BME280;68550;-26.480;29.234;2024-01-07T09:02:34;84337.20;;;27.43;37.70
79142;BME280;68550;-26.480;29.234;2024-01-07T09:04:53;84339.08;;;27.53;37.69
79142;BME280;68550;-26.480;29.234;2024-01-07T09:07:18;84338.07;;;27.51;37.71
79142;BME280;68550;-26.480;29.234;2024-01-07T09:09:43;84334.56;;;27.53;37.72
79142;BME280;68550;-26.480;29.234;2024-01-07T09:12:09;84331.88;;;27.42;37.86
79142;BME280;68550;-26.480;29.234;2024-01-07T09:14:34;84330.44;;;27.39;37.94
79142;BME280;68550;-26.480;29.234;2024-01-07T09:17:02;84330.20;;;27.09;38.35
79142;BME280;68550;-26.480;29.234;2024-01-07T09:19:25;84327.92;;;27.09;38.27
79142;BME280;68550;-26.480;29.234;2024-01-07T09:21:50;84328.11;;;27.11;38.29
79142;BME280;68550;-26.480;29.234;2024-01-07T09:24:15;84323.69;;;27.28;38.09
79142;BME280;68550;-26.480;29.234;2024-01-07T09:26:41;84321.11;;;27.24;38.16
79142;BME280;68550;-26.480;29.234;2024-01-07T09:29:06;84315.85;;;27.40;38.01
79142;BME280;68550;-26.480;29.234;2024-01-07T09:31:33;84314.71;;;27.27;37.85
79142;BME280;68550;-26.480;29.234;2024-01-07T09:33:57;84313.18;;;27.33;38.03
79142;BME280;68550;-26.480;29.234;2024-01-07T09:36:22;84312.24;;;27.28;37.95
79142;BME280;68550;-26.480;29.234;2024-01-07T09:38:48;84308.49;;;27.33;38.09
79142;BME280;68550;-26.480;29.234;2024-01-07T09:41:13;84304.38;;;27.39;37.97
79142;BME280;68550;-26.480;29.234;2024-01-07T09:43:40;84302.49;;;27.47;37.98
79142;BME280;68550;-26.480;29.234;2024-01-07T09:46:04;84301.66;;;27.73;37.80
79142;BME280;68550;-26.480;29.234;2024-01-07T09:48:33;84299.78;;;27.43;38.01
79142;BME280;68550;-26.480;29.234;2024-01-07T09:50:54;84296.69;;;27.30;38.28
79142;BME280;68550;-26.480;29.234;2024-01-07T09:53:21;84294.92;;;27.54;38.35
79142;BME280;68550;-26.480;29.234;2024-01-07T09:55:56;84293.01;;;27.87;38.18
79142;BME280;68550;-26.480;29.234;2024-01-07T09:58:12;84294.26;;;27.80;38.23
79142;BME280;68550;-26.480;29.234;2024-01-07T10:00:37;84294.10;;;27.47;38.11
79142;BME280;68550;-26.480;29.234;2024-01-07T10:03:01;84291.40;;;27.51;38.08
79142;BME280;68550;-26.480;29.234;2024-01-07T10:05:26;84286.09;;;27.70;38.12
79142;BME280;68550;-26.480;29.234;2024-01-07T10:07:54;84284.45;;;27.72;38.24
79142;BME280;68550;-26.480;29.234;2024-01-07T10:10:18;84282.51;;;27.56;38.53
79142;BME280;68550;-26.480;29.234;2024-01-07T10:12:44;84279.44;;;27.67;38.28
79142;BME280;68550;-26.480;29.234;2024-01-07T10:15:08;84276.66;;;27.49;38.47
79142;BME280;68550;-26.480;29.234;2024-01-07T10:17:33;84275.31;;;27.44;38.26
79142;BME280;68550;-26.480;29.234;2024-01-07T10:20:05;84274.39;;;27.40;38.04
79142;BME280;68550;-26.480;29.234;2024-01-07T10:22:23;84266.26;;;27.67;37.94
79142;BME280;68550;-26.480;29.234;2024-01-07T10:24:52;84261.15;;;27.48;38.23
79142;BME280;68550;-26.480;29.234;2024-01-07T10:27:14;84263.48;;;27.34;38.29
79142;BME280;68550;-26.480;29.234;2024-01-07T10:29:40;84257.91;;;27.57;38.37
79142;BME280;68550;-26.480;29.234;2024-01-07T10:32:07;84258.65;;;27.73;38.30
79142;BME280;68550;-26.480;29.234;2024-01-07T10:34:31;84257.31;;;27.54;38.22
79142;BME280;68550;-26.480;29.234;2024-01-07T10:36:59;84257.03;;;27.52;38.26
79142;BME280;68550;-26.480;29.234;2024-01-07T10:39:21;84255.62;;;27.24;38.08
79142;BME280;68550;-26.480;29.234;2024-01-07T10:41:47;84253.30;;;27.79;38.17
79142;BME280;68550;-26.480;29.234;2024-01-07T10:44:15;84249.68;;;28.00;37.96
79142;BME280;68550;-26.480;29.234;2024-01-07T10:46:37;84246.57;;;27.97;38.12
79142;BME280;68550;-26.480;29.234;2024-01-07T10:49:07;84239.79;;;27.64;38.39
79142;BME280;68550;-26.480;29.234;2024-01-07T10:51:29;84239.65;;;27.83;38.04
79142;BME280;68550;-26.480;29.234;2024-01-07T10:53:53;84236.27;;;27.88;37.20
79142;BME280;68550;-26.480;29.234;2024-01-07T10:56:23;84235.25;;;27.49;37.88
79142;BME280;68550;-26.480;29.234;2024-01-07T10:58:44;84227.92;;;27.49;38.04
79142;BME280;68550;-26.480;29.234;2024-01-07T11:01:09;84229.42;;;27.78;38.00
79142;BME280;68550;-26.480;29.234;2024-01-07T11:03:40;84228.48;;;27.72;38.10
79142;BME280;68550;-26.480;29.234;2024-01-07T11:06:03;84227.00;;;27.95;37.25
79142;BME280;68550;-26.480;29.234;2024-01-07T11:08:31;84219.29;;;27.91;36.88
79142;BME280;68550;-26.480;29.234;2024-01-07T11:10:57;84218.00;;;27.47;37.28
79142;BME280;68550;-26.480;29.234;2024-01-07T11:15:53;84211.20;;;27.63;37.49
79142;BME280;68550;-26.480;29.234;2024-01-07T11:18:06;84209.67;;;27.58;37.62
79142;BME280;68550;-26.480;29.234;2024-01-07T11:20:33;84208.60;;;27.95;37.58
79142;BME280;68550;-26.480;29.234;2024-01-07T11:25:31;84198.51;;;27.88;37.23
79142;BME280;68550;-26.480;29.234;2024-01-07T11:27:47;84195.93;;;28.00;37.26
79142;BME280;68550;-26.480;29.234;2024-01-07T11:30:19;84194.84;;;27.57;37.28
79142;BME280;68550;-26.480;29.234;2024-01-07T11:32:40;84193.65;;;27.61;37.36
79142;BME280;68550;-26.480;29.234;2024-01-07T11:35:03;84192.53;;;27.86;37.28
79142;BME280;68550;-26.480;29.234;2024-01-07T11:37:28;84189.11;;;27.61;37.49
79142;BME280;68550;-26.480;29.234;2024-01-07T11:39:56;84187.74;;;27.80;37.63
79142;BME280;68550;-26.480;29.234;2024-01-07T11:42:19;84182.39;;;28.25;37.60
79142;BME280;68550;-26.480;29.234;2024-01-07T11:44:47;84179.84;;;28.12;37.51
79142;BME280;68550;-26.480;29.234;2024-01-07T11:47:09;84177.42;;;27.82;37.68
79142;BME280;68550;-26.480;29.234;2024-01-07T11:49:36;84166.86;;;27.72;37.91
79142;BME280;68550;-26.480;29.234;2024-01-07T11:52:00;84164.87;;;28.22;37.98
79142;BME280;68550;-26.480;29.234;2024-01-07T11:54:25;84163.15;;;27.69;37.91
79142;BME280;68550;-26.480;29.234;2024-01-07T11:56:52;84159.19;;;27.86;37.96
79142;BME280;68550;-26.480;29.234;2024-01-07T11:59:16;84154.71;;;28.34;37.89
79142;BME280;68550;-26.480;29.234;2024-01-07T12:01:42;84151.55;;;28.31;37.98
79142;BME280;68550;-26.480;29.234;2024-01-07T12:04:07;84146.92;;;27.83;37.98
79142;BME280;68550;-26.480;29.234;2024-01-07T12:06:32;84144.92;;;27.69;38.17
79142;BME280;68550;-26.480;29.234;2024-01-07T12:08:59;84141.03;;;27.99;38.13
79142;BME280;68550;-26.480;29.234;2024-01-07T12:11:23;84138.19;;;27.99;37.95
79142;BME280;68550;-26.480;29.234;2024-01-07T12:13:48;84135.04;;;27.56;38.03
79142;BME280;68550;-26.480;29.234;2024-01-07T12:16:16;84135.93;;;27.73;37.87
79142;BME280;68550;-26.480;29.234;2024-01-07T12:18:39;84132.40;;;28.29;37.77
79142;BME280;68550;-26.480;29.234;2024-01-07T12:21:07;84129.99;;;27.84;37.83
79142;BME280;68550;-26.480;29.234;2024-01-07T12:23:34;84122.48;;;27.68;38.12
79142;BME280;68550;-26.480;29.234;2024-01-07T12:25:55;84117.47;;;27.71;37.98
79142;BME280;68550;-26.480;29.234;2024-01-07T12:28:21;84113.92;;;28.26;37.82
79142;BME280;68550;-26.480;29.234;2024-01-07T12:30:47;84110.37;;;28.37;37.77
79142;BME280;68550;-26.480;29.234;2024-01-07T12:33:12;84102.39;;;27.78;37.98
79142;BME280;68550;-26.480;29.234;2024-01-07T12:35:36;84099.59;;;27.85;37.90